Time;durP1;ratioP1;P1;durP2;ratioP2;P2;SDS_P1;SDS_P2;PMS_P1;PMS_P2;Temp;Humidity;BMP_temperature;BMP_pressure;BME280_temperature;BME280_humidity;BME280_pressure;Samples;Min_cycle;Max_cycle;Signal;HPM_P1;HPM_P2
2021/10/24 00:01:49;;;;;;;7.05;4.15;;;;;;;26.20;28.53;101989.41;4147791;28;20038;-59
2021/10/24 00:03:51;;;;;;;6.55;4.13;;;;;;;26.19;28.13;101992.25;4147562;28;20511;-61
2021/10/24 00:05:54;;;;;;;6.88;4.00;;;;;;;26.28;28.42;102003.13;4147845;28;20068;-62
2021/10/24 00:07:57;;;;;;;7.45;4.15;;;;;;;26.45;28.29;102033.22;4147534;28;20037;-59
2021/10/24 00:09:59;;;;;;;7.70;4.25;;;;;;;26.45;28.40;102022.44;4147792;28;20049;-66
2021/10/24 00:12:02;;;;;;;7.15;3.95;;;;;;;26.24;28.21;101990.03;4147868;28;20081;-61
2021/10/24 00:14:06;;;;;;;7.88;4.00;;;;;;;26.39;28.13;102007.63;4147550;28;20046;-61
2021/10/24 00:16:09;;;;;;;6.90;4.00;;;;;;;26.49;28.16;102014.94;4147569;28;20441;-58
2021/10/24 00:18:11;;;;;;;7.05;4.05;;;;;;;26.33;28.25;101988.41;4147432;28;20522;-64
2021/10/24 00:20:13;;;;;;;6.88;4.00;;;;;;;26.34;28.21;101993.66;4136542;28;20057;-63
2021/10/24 00:22:15;;;;;;;7.88;3.88;;;;;;;26.38;28.28;101999.66;4147564;28;20120;-62
2021/10/24 00:24:17;;;;;;;6.30;3.75;;;;;;;26.49;28.07;102017.66;4147133;28;20034;-58
2021/10/24 00:26:20;;;;;;;6.25;3.70;;;;;;;26.20;28.23;101966.97;4147439;28;20046;-59
2021/10/24 00:28:22;;;;;;;6.97;4.10;;;;;;;26.34;28.32;102001.75;4147451;28;20469;-58
2021/10/24 00:30:24;;;;;;;7.30;3.67;;;;;;;26.47;28.45;102015.94;4147400;28;20049;-61
2021/10/24 00:32:27;;;;;;;5.63;3.47;;;;;;;26.45;28.25;102009.81;4146201;28;20050;-66
2021/10/24 00:34:29;;;;;;;6.07;3.60;;;;;;;26.51;28.21;102023.78;4160998;28;20107;-60
2021/10/24 00:36:31;;;;;;;6.47;3.53;;;;;;;26.34;28.24;102001.75;4147308;28;20493;-62
2021/10/24 00:38:33;;;;;;;6.70;3.78;;;;;;;26.34;28.41;101993.66;4147303;28;20061;-60
2021/10/24 00:40:36;;;;;;;7.65;3.67;;;;;;;26.38;28.43;102005.03;4147393;28;20050;-62
2021/10/24 00:42:50;;;;;;;7.68;3.78;;;;;;;26.24;28.03;101971.16;4147346;28;20052;-59
2021/10/24 00:44:52;;;;;;;5.80;3.50;;;;;;;26.53;28.27;102019.13;4146963;28;20497;-58
2021/10/24 00:46:56;;;;;;;6.70;3.67;;;;;;;26.38;28.29;101986.16;4147190;28;20049;-61
2021/10/24 00:48:59;;;;;;;6.47;3.30;;;;;;;26.43;28.27;101997.47;4147013;28;20053;-60
2021/10/24 00:51:01;;;;;;;5.38;3.20;;;;;;;26.35;28.12;101989.97;4146979;28;20037;-61
2021/10/24 00:53:07;;;;;;;7.32;3.50;;;;;;;26.40;28.23;101993.16;4147309;28;20050;-62
2021/10/24 00:55:09;;;;;;;6.05;3.40;;;;;;;26.39;28.23;101991.47;4147018;28;20041;-63
2021/10/24 00:57:11;;;;;;;5.70;3.22;;;;;;;26.50;28.14;102006.72;4146943;28;20046;-64
2021/10/24 00:59:14;;;;;;;6.07;3.38;;;;;;;26.42;28.27;101996.56;4146658;28;20517;-59
2021/10/24 01:01:16;;;;;;;7.22;3.10;;;;;;;26.52;28.19;102012.00;4146788;28;20111;-65
2021/10/24 01:03:19;;;;;;;5.55;3.00;;;;;;;26.28;28.10;101973.47;4146980;28;20049;-60
2021/10/24 01:05:21;;;;;;;6.18;3.25;;;;;;;26.43;28.14;101994.75;4146648;28;20046;-62
2021/10/24 01:07:23;;;;;;;5.53;3.33;;;;;;;26.25;28.47;101968.31;4146671;28;20042;-64
2021/10/24 01:09:26;;;;;;;5.47;3.10;;;;;;;26.23;28.32;101959.47;4146593;28;20502;-66
2021/10/24 01:11:28;;;;;;;6.25;3.22;;;;;;;26.36;28.18;101988.16;4146630;28;20050;-59
2021/10/24 01:13:34;;;;;;;4.97;2.72;;;;;;;26.34;28.43;101969.38;4146861;28;20050;-60
2021/10/24 01:15:38;;;;;;;6.05;2.80;;;;;;;26.46;28.40;102003.41;4146387;28;20037;-64
2021/10/24 01:17:40;;;;;;;5.40;2.80;;;;;;;26.25;28.21;101956.69;4146514;28;20050;-62
2021/10/24 01:19:42;;;;;;;5.25;2.90;;;;;;;26.22;28.17;101957.81;4146489;28;20046;-61
2021/10/24 01:21:45;;;;;;;5.55;2.90;;;;;;;26.46;28.20;101997.19;4146370;28;20046;-66
2021/10/24 01:23:47;;;;;;;5.78;3.03;;;;;;;26.18;28.23;101944.69;4146872;28;20502;-59
2021/10/24 01:25:53;;;;;;;5.20;2.72;;;;;;;26.47;28.10;101997.03;4146318;28;20046;-66
2021/10/24 01:27:55;;;;;;;5.47;2.85;;;;;;;26.17;28.16;101948.38;4146837;28;20196;-59
2021/10/24 01:29:58;;;;;;;5.38;2.97;;;;;;;26.13;28.04;101942.38;4146660;28;20042;-62
2021/10/24 01:32:00;;;;;;;5.82;2.95;;;;;;;26.47;28.19;101991.66;4145771;28;20050;-59
2021/10/24 01:34:04;;;;;;;5.35;2.70;;;;;;;26.17;28.19;101946.50;4146419;28;20053;-60
2021/10/24 01:36:09;;;;;;;5.90;3.00;;;;;;;26.45;28.28;101984.66;4146254;28;20046;-62
2021/10/24 01:38:11;;;;;;;5.40;2.70;;;;;;;26.15;28.23;101933.16;4146511;28;20037;-59
2021/10/24 01:40:16;;;;;;;6.38;2.83;;;;;;;26.22;28.10;101936.22;4146434;28;20065;-63
2021/10/24 01:42:19;;;;;;;6.80;2.90;;;;;;;26.49;28.20;101978.06;4141926;28;20053;-62
2021/10/24 01:44:21;;;;;;;5.70;2.70;;;;;;;26.13;27.98;101915.41;4129993;28;20061;-61
2021/10/24 01:46:23;;;;;;;5.60;2.83;;;;;;;26.50;28.15;101970.81;4137064;28;20052;-64
2021/10/24 01:48:26;;;;;;;5.38;2.70;;;;;;;26.29;28.24;101933.84;4146262;28;20046;-59
2021/10/24 01:50:28;;;;;;;5.28;2.85;;;;;;;26.17;28.09;101914.16;4146321;28;20504;-64
2021/10/24 01:52:30;;;;;;;5.85;2.67;;;;;;;26.18;28.19;101917.72;4145683;28;20120;-59
2021/10/24 01:54:32;;;;;;;4.75;2.42;;;;;;;26.32;28.09;101939.00;4146086;28;20100;-58
2021/10/24 01:56:35;;;;;;;5.90;3.25;;;;;;;26.13;28.24;101901.94;4145973;28;20050;-58
2021/10/24 01:58:37;;;;;;;5.95;3.03;;;;;;;26.46;28.11;101957.56;4145898;28;20058;-59
2021/10/24 02:00:40;;;;;;;5.07;3.00;;;;;;;26.42;28.22;101945.31;4146377;28;20623;-58
2021/10/24 02:02:43;;;;;;;5.85;3.15;;;;;;;26.34;28.09;101925.38;4145727;28;20038;-59
2021/10/24 02:04:46;;;;;;;5.47;2.63;;;;;;;26.46;28.20;101938.69;4145934;28;20049;-59
2021/10/24 02:06:48;;;;;;;5.43;2.92;;;;;;;26.46;28.14;101935.13;4145831;28;20041;-61
2021/10/24 02:08:50;;;;;;;6.38;3.60;;;;;;;26.47;28.29;101931.47;4134875;28;20042;-59
2021/10/24 02:10:53;;;;;;;4.78;2.80;;;;;;;26.37;28.19;101912.50;4145897;28;20041;-59
2021/10/24 02:12:55;;;;;;;6.18;2.97;;;;;;;26.13;28.19;101870.41;4145557;28;20046;-58
2021/10/24 02:14:57;;;;;;;6.22;2.90;;;;;;;26.48;28.24;101930.47;4144629;28;20042;-59
2021/10/24 02:16:59;;;;;;;5.63;3.10;;;;;;;26.11;28.09;101867.00;4145757;28;20091;-62
2021/10/24 02:19:01;;;;;;;7.50;3.05;;;;;;;26.44;28.12;101910.13;4145705;28;20053;-60
2021/10/24 02:21:03;;;;;;;5.70;3.10;;;;;;;26.27;27.98;101885.44;4145763;28;20049;-59
2021/10/24 02:23:09;;;;;;;6.07;2.95;;;;;;;26.45;28.18;101917.22;4145419;28;20395;-65
2021/10/24 02:25:11;;;;;;;5.60;3.10;;;;;;;26.44;28.27;101912.81;4145844;28;20524;-67
2021/10/24 02:27:14;;;;;;;5.25;3.00;;;;;;;26.45;28.21;101906.44;4145622;28;20066;-63
2021/10/24 02:29:16;;;;;;;5.03;3.00;;;;;;;26.09;27.95;101851.91;4145654;28;20041;-62
2021/10/24 02:31:18;;;;;;;6.72;3.22;;;;;;;26.38;28.08;101895.34;4145844;28;20092;-63
2021/10/24 02:33:21;;;;;;;5.78;2.92;;;;;;;26.21;27.90;101872.47;4145405;28;20041;-60
2021/10/24 02:35:25;;;;;;;6.35;3.15;;;;;;;26.31;27.92;101886.88;4145703;28;20053;-58
2021/10/24 02:37:28;;;;;;;5.50;3.08;;;;;;;26.44;28.00;101907.44;4145752;28;20050;-61
2021/10/24 02:39:30;;;;;;;5.70;2.95;;;;;;;26.23;28.00;101861.56;4145629;28;20733;-62
2021/10/24 02:41:32;;;;;;;5.05;2.80;;;;;;;26.46;27.78;101902.75;4145746;28;20064;-63
2021/10/24 02:43:34;;;;;;;4.95;2.72;;;;;;;26.12;27.78;101847.13;4145697;28;20482;-58
2021/10/24 02:45:38;;;;;;;5.55;3.03;;;;;;;26.44;27.81;101897.50;4145561;28;20057;-61
2021/10/24 02:47:40;;;;;;;5.75;2.92;;;;;;;26.09;28.03;101838.44;4145696;28;20081;-60
2021/10/24 02:49:44;;;;;;;6.53;3.03;;;;;;;26.42;28.00;101894.06;4145382;28;20195;-59
2021/10/24 02:51:47;;;;;;;6.15;3.25;;;;;;;26.36;27.67;101891.06;4145626;28;20042;-62
2021/10/24 02:53:49;;;;;;;6.15;3.10;;;;;;;26.14;27.96;101844.31;4145414;28;20042;-60
2021/10/24 02:55:51;;;;;;;5.38;3.10;;;;;;;26.40;28.01;101887.94;4145542;28;20053;-60
2021/10/24 02:57:56;;;;;;;5.72;3.10;;;;;;;26.18;27.87;101853.00;4146760;28;20042;-58
2021/10/24 02:59:58;;;;;;;5.30;2.72;;;;;;;26.20;28.07;101848.31;4147494;28;20041;-66
2021/10/24 03:02:01;;;;;;;5.78;3.10;;;;;;;26.04;28.16;101816.38;4148730;28;20049;-59
2021/10/24 03:04:04;;;;;;;5.35;3.10;;;;;;;26.40;28.18;101877.16;4148497;28;20049;-60
2021/10/24 03:06:06;;;;;;;5.53;2.92;;;;;;;26.39;28.19;101875.47;4148865;28;20517;-58
2021/10/24 03:08:09;;;;;;;5.82;2.88;;;;;;;26.24;27.82;101847.94;4148818;28;20050;-61
2021/10/24 03:10:12;;;;;;;6.80;3.08;;;;;;;26.28;27.75;101856.63;4148466;28;20562;-59
2021/10/24 03:12:15;;;;;;;4.95;2.72;;;;;;;26.43;27.86;101878.75;4148683;28;20468;-58
2021/10/24 03:14:17;;;;;;;5.70;3.17;;;;;;;26.42;27.99;101882.44;4148310;28;20042;-58
2021/10/24 03:16:20;;;;;;;5.28;2.72;;;;;;;26.37;27.81;101874.75;4148643;28;20426;-63
2021/10/24 03:18:22;;;;;;;5.90;3.03;;;;;;;26.39;27.79;101877.28;4148759;28;20116;-59
2021/10/24 03:20:24;;;;;;;5.15;2.90;;;;;;;26.31;28.01;101867.16;4148380;28;20068;-58
2021/10/24 03:22:26;;;;;;;6.13;3.22;;;;;;;26.12;27.92;101830.94;4148450;28;20050;-59
2021/10/24 03:24:29;;;;;;;5.30;3.10;;;;;;;26.18;27.76;101844.94;4148231;28;20051;-60
2021/10/24 03:26:32;;;;;;;6.32;2.97;;;;;;;26.21;27.75;101841.94;4148481;28;20161;-61
2021/10/24 03:28:36;;;;;;;6.43;2.97;;;;;;;26.31;27.91;101867.16;4148831;28;20445;-61
2021/10/24 03:30:38;;;;;;;5.57;3.10;;;;;;;26.04;28.05;101816.38;4148299;28;20046;-64
2021/10/24 03:32:40;;;;;;;6.88;2.95;;;;;;;26.21;27.99;101840.13;4148219;28;20515;-60
2021/10/24 03:34:43;;;;;;;6.05;3.00;;;;;;;26.35;27.73;101859.66;4148203;28;20050;-59
2021/10/24 03:36:48;;;;;;;5.82;2.72;;;;;;;26.40;27.96;101873.63;4148179;28;20113;-58
2021/10/24 03:38:51;;;;;;;6.07;2.80;;;;;;;26.05;28.11;101820.78;4148444;28;20056;-59
2021/10/24 03:40:53;;;;;;;5.88;3.10;;;;;;;26.18;28.00;101840.38;4148024;28;20048;-60
2021/10/24 03:42:55;;;;;;;5.18;2.70;;;;;;;26.23;27.77;101848.06;4148221;28;20077;-61
2021/10/24 03:44:57;;;;;;;5.93;2.90;;;;;;;26.20;27.66;101845.63;4148314;28;20125;-64
2021/10/24 03:47:00;;;;;;;4.65;2.80;;;;;;;26.36;27.67;101866.78;4148036;28;20046;-63
2021/10/24 03:49:03;;;;;;;6.07;3.17;;;;;;;26.32;27.94;101874.28;4148379;28;20045;-63
2021/10/24 03:51:05;;;;;;;5.45;3.00;;;;;;;26.25;27.64;101863.13;4147936;28;20107;-65
2021/10/24 03:53:07;;;;;;;5.68;3.17;;;;;;;26.14;27.67;101847.03;4148014;28;20064;-64
2021/10/24 03:55:12;;;;;;;5.03;2.72;;;;;;;26.34;27.73;101883.06;4147886;28;20096;-58
2021/10/24 03:57:14;;;;;;;4.90;2.42;;;;;;;26.35;27.73;101890.19;4148140;28;20608;-65
2021/10/24 03:59:16;;;;;;;5.78;2.90;;;;;;;26.24;27.82;101877.59;4147889;28;20054;-61
2021/10/24 04:01:19;;;;;;;4.68;2.70;;;;;;;26.23;28.01;101873.19;4147683;28;20049;-61
2021/10/24 04:03:21;;;;;;;4.68;2.55;;;;;;;26.13;27.91;101862.31;4147716;28;20063;-59
2021/10/24 04:05:25;;;;;;;4.57;2.50;;;;;;;26.22;27.72;101873.31;4147802;28;20050;-61
2021/10/24 04:07:27;;;;;;;4.85;2.72;;;;;;;26.04;27.76;101848.72;4146463;28;20124;-60
2021/10/24 04:09:29;;;;;;;5.40;3.00;;;;;;;26.37;27.69;101906.22;4147846;28;20148;-64
2021/10/24 04:11:31;;;;;;;5.20;2.90;;;;;;;26.35;27.94;101906.38;4147491;28;20045;-59
2021/10/24 04:13:33;;;;;;;5.65;2.70;;;;;;;26.29;27.61;101896.94;4147739;28;20042;-60
2021/10/24 04:15:36;;;;;;;6.20;2.95;;;;;;;26.21;27.66;101882.41;4147671;28;20050;-60
2021/10/24 04:17:39;;;;;;;6.03;3.00;;;;;;;26.34;27.88;101910.03;4147499;28;20046;-61
2021/10/24 04:19:41;;;;;;;5.32;2.92;;;;;;;26.23;27.94;101893.91;4147651;28;20045;-61
2021/10/24 04:21:44;;;;;;;4.43;2.58;;;;;;;26.25;27.57;101891.97;4147541;28;20046;-60
2021/10/24 04:23:46;;;;;;;5.88;2.65;;;;;;;26.31;27.49;101907.63;4147624;28;20169;-59
2021/10/24 04:25:49;;;;;;;5.50;3.00;;;;;;;26.18;27.93;101890.75;4147690;28;20125;-59
2021/10/24 04:27:52;;;;;;;6.05;3.10;;;;;;;26.26;27.68;101897.22;4143343;28;20482;-58
2021/10/24 04:29:54;;;;;;;4.72;2.90;;;;;;;26.06;27.69;101862.94;4131464;28;20094;-59
2021/10/24 04:31:56;;;;;;;4.50;2.60;;;;;;;26.28;27.69;101900.66;4134715;28;20054;-60
2021/10/24 04:33:59;;;;;;;4.72;2.70;;;;;;;26.30;27.79;101901.34;4139364;28;20042;-60
2021/10/24 04:36:01;;;;;;;5.75;2.80;;;;;;;26.33;27.57;101899.41;4131155;28;20046;-66
2021/10/24 04:38:03;;;;;;;5.00;2.80;;;;;;;26.33;27.97;101904.78;4142267;28;20105;-63
2021/10/24 04:40:06;;;;;;;4.90;2.63;;;;;;;25.99;27.78;101846.41;4131895;28;20046;-60
2021/10/24 04:42:09;;;;;;;5.82;3.17;;;;;;;26.29;27.80;101893.41;4133400;28;20088;-60
2021/10/24 04:44:11;;;;;;;5.72;2.80;;;;;;;26.12;27.69;101868.69;4139356;28;20474;-61
2021/10/24 04:46:13;;;;;;;5.05;2.67;;;;;;;26.23;27.53;101883.97;4131269;28;20053;-60
2021/10/24 04:48:16;;;;;;;5.15;2.60;;;;;;;25.94;27.61;101835.16;4140936;28;20042;-62
2021/10/24 04:50:18;;;;;;;5.15;2.70;;;;;;;26.23;27.64;101877.75;4132907;28;20073;-64
2021/10/24 04:52:20;;;;;;;5.25;2.75;;;;;;;26.09;27.51;101852.78;4132200;28;20069;-61
2021/10/24 04:54:23;;;;;;;5.65;2.80;;;;;;;26.15;27.46;101864.91;4136405;28;20069;-63
2021/10/24 04:56:26;;;;;;;5.80;2.90;;;;;;;26.29;27.69;101885.31;4147111;28;20046;-66
2021/10/24 04:58:28;;;;;;;5.93;2.88;;;;;;;26.13;27.56;101864.19;4146698;28;20506;-61
2021/10/24 05:00:32;;;;;;;5.55;2.97;;;;;;;26.15;27.65;101854.97;4147141;28;20133;-63
2021/10/24 05:02:34;;;;;;;4.70;2.42;;;;;;;26.29;27.77;101888.84;4146900;28;20050;-62
2021/10/24 05:04:38;;;;;;;4.72;2.53;;;;;;;26.19;27.52;101862.81;4146963;28;20056;-58
2021/10/24 05:06:40;;;;;;;4.28;2.40;;;;;;;26.23;27.47;101875.88;4147059;28;20494;-59
2021/10/24 05:08:43;;;;;;;6.13;2.78;;;;;;;26.28;27.54;101889.00;4146553;28;20046;-61
2021/10/24 05:10:45;;;;;;;5.05;2.83;;;;;;;25.91;27.78;101825.50;4146859;28;20092;-58
2021/10/24 05:12:47;;;;;;;5.18;2.63;;;;;;;26.26;27.71;101885.56;4146951;28;20054;-59
2021/10/24 05:14:49;;;;;;;5.10;2.78;;;;;;;25.94;27.53;101837.88;4146547;28;20715;-62
2021/10/24 05:16:51;;;;;;;4.35;2.38;;;;;;;26.21;27.78;101877.88;4146952;28;20042;-59
2021/10/24 05:18:54;;;;;;;5.32;2.80;;;;;;;26.21;27.43;101869.78;4146474;28;20509;-59
2021/10/24 05:20:56;;;;;;;5.70;2.60;;;;;;;25.97;27.43;101834.94;4146178;28;20414;-63
2021/10/24 05:22:58;;;;;;;4.97;2.58;;;;;;;26.25;27.57;101882.00;4146764;28;20049;-61
2021/10/24 05:25:20;;;;;;;5.28;2.40;;;;;;;26.11;27.38;101858.06;4146624;28;20046;-65
2021/10/24 05:27:23;;;;;;;5.90;2.70;;;;;;;26.25;27.58;101875.78;4146654;28;20046;-59
2021/10/24 05:29:25;;;;;;;4.97;2.80;;;;;;;25.95;27.76;101818.88;4146247;28;20045;-58
2021/10/24 05:31:27;;;;;;;5.15;2.80;;;;;;;26.14;27.59;101847.03;4146506;28;20052;-63
2021/10/24 05:33:30;;;;;;;5.53;2.55;;;;;;;26.25;27.68;101871.22;4161364;28;20042;-61
2021/10/24 05:35:33;;;;;;;6.25;2.90;;;;;;;26.05;27.33;101829.72;4146536;28;20065;-62
2021/10/24 05:37:35;;;;;;;4.60;2.58;;;;;;;26.17;27.48;101854.84;4145290;28;20054;-59
2021/10/24 05:39:37;;;;;;;5.55;2.55;;;;;;;26.24;27.45;101860.59;4146212;28;20123;-58
2021/10/24 05:41:39;;;;;;;5.35;2.78;;;;;;;26.08;27.33;101836.75;4146399;28;20117;-58
2021/10/24 05:43:42;;;;;;;4.75;2.63;;;;;;;26.01;27.60;101828.28;4146167;28;20457;-61
2021/10/24 05:45:45;;;;;;;5.15;2.53;;;;;;;26.18;27.33;101859.25;4146375;28;20054;-58
2021/10/24 05:47:47;;;;;;;4.15;2.30;;;;;;;25.88;27.51;101811.44;4146600;28;20126;-58
2021/10/24 05:49:50;;;;;;;6.05;2.22;;;;;;;26.22;27.38;101868.81;4146031;28;20472;-58
2021/10/24 05:51:53;;;;;;;5.78;2.63;;;;;;;26.23;27.42;101858.88;4146223;28;20639;-58
2021/10/24 05:53:55;;;;;;;4.55;2.45;;;;;;;25.98;27.23;101820.47;4146323;28;20045;-59
2021/10/24 05:55:58;;;;;;;5.97;2.33;;;;;;;26.22;27.33;101858.03;4146115;28;20049;-58
2021/10/24 05:58:00;;;;;;;4.78;2.20;;;;;;;26.24;27.45;101857.88;4146143;28;20567;-59
2021/10/24 06:00:03;;;;;;;5.13;2.35;;;;;;;26.19;27.25;101852.88;4144572;28;20046;-58
2021/10/24 06:02:06;;;;;;;5.22;2.47;;;;;;;26.22;27.42;101855.31;4146128;28;20402;-59
2021/10/24 06:04:08;;;;;;;4.70;2.40;;;;;;;26.02;27.34;101827.31;4146141;28;20046;-62
2021/10/24 06:06:11;;;;;;;5.32;2.70;;;;;;;26.11;27.36;101845.44;4145068;28;20445;-58
2021/10/24 06:08:23;;;;;;;4.72;2.22;;;;;;;26.04;27.35;101835.25;4146190;28;20049;-60
2021/10/24 06:10:32;;;;;;;5.40;2.40;;;;;;;26.14;27.50;101850.56;4145805;28;20182;-65
2021/10/24 06:14:38;;;;;;;4.72;2.60;;;;;;;26.12;27.54;101855.22;4145781;28;20108;-65
2021/10/24 06:16:40;;;;;;;6.43;2.50;;;;;;;26.12;27.60;101852.53;4142374;28;20046;-59
2021/10/24 06:18:43;;;;;;;5.00;2.58;;;;;;;26.11;27.31;101845.44;4146095;28;20505;-66
2021/10/24 06:20:45;;;;;;;4.80;2.60;;;;;;;26.14;27.33;101844.31;4145511;28;20525;-62
2021/10/24 06:22:48;;;;;;;4.72;2.45;;;;;;;26.18;27.24;101844.94;4145706;28;20053;-62
2021/10/24 06:24:50;;;;;;;4.13;2.30;;;;;;;26.00;27.35;101818.47;4145777;28;20116;-59
2021/10/24 06:26:53;;;;;;;6.85;2.50;;;;;;;26.13;27.43;101834.53;4144663;28;20049;-59
2021/10/24 06:28:55;;;;;;;4.38;2.17;;;;;;;26.13;27.55;101834.53;4145881;28;20494;-63
2021/10/24 06:30:57;;;;;;;5.45;2.47;;;;;;;26.17;27.50;101840.50;4145380;28;20099;-65
2021/10/24 06:32:59;;;;;;;4.72;2.25;;;;;;;26.18;27.42;101844.94;4144801;28;20054;-65
2021/10/24 06:35:03;;;;;;;5.60;2.40;;;;;;;25.90;27.54;101787.91;4145800;28;20053;-65
2021/10/24 06:37:06;;;;;;;4.40;2.30;;;;;;;26.01;27.22;101808.56;4145424;28;20046;-62
2021/10/24 06:39:08;;;;;;;4.72;2.50;;;;;;;26.00;27.51;101807.69;4145706;28;20074;-59
2021/10/24 06:41:10;;;;;;;5.07;2.42;;;;;;;26.12;27.46;101832.81;4145390;28;20037;-62
2021/10/24 06:43:12;;;;;;;5.70;2.47;;;;;;;26.00;27.43;101810.41;4145641;28;20042;-58
2021/10/24 06:45:14;;;;;;;5.55;2.40;;;;;;;26.15;27.53;101841.50;4145802;28;20052;-60
2021/10/24 06:47:16;;;;;;;5.00;2.40;;;;;;;25.98;27.46;101813.22;4145390;28;20038;-64
2021/10/24 06:49:18;;;;;;;3.45;2.00;;;;;;;26.08;27.40;101832.22;4145656;28;20050;-66
2021/10/24 06:51:21;;;;;;;5.68;2.30;;;;;;;25.84;27.46;101787.41;4145352;28;20104;-59
2021/10/24 06:53:23;;;;;;;5.05;2.17;;;;;;;25.84;27.40;101781.19;4145560;28;20046;-58
2021/10/24 06:55:25;;;;;;;3.70;2.17;;;;;;;26.08;27.16;101826.81;4145399;28;20482;-62
2021/10/24 06:57:27;;;;;;;4.40;2.30;;;;;;;26.20;27.49;101842.94;4145222;28;20046;-60
2021/10/24 06:59:29;;;;;;;4.82;2.17;;;;;;;26.03;27.19;101815.53;4145255;28;20058;-58
2021/10/24 07:01:32;;;;;;;4.22;2.17;;;;;;;26.14;27.47;101830.84;4145248;28;20038;-58
2021/10/24 07:03:34;;;;;;;4.65;2.30;;;;;;;25.81;27.49;101781.47;4145209;28;20050;-59
2021/10/24 07:05:37;;;;;;;4.30;2.08;;;;;;;25.83;27.20;101782.16;4145421;28;20046;-63
2021/10/24 07:07:40;;;;;;;4.05;2.00;;;;;;;26.16;27.23;101836.94;4145175;28;20049;-59
2021/10/24 07:09:42;;;;;;;6.30;2.20;;;;;;;25.94;27.25;101803.69;4145426;28;20065;-58
2021/10/24 07:11:45;;;;;;;4.60;2.03;;;;;;;25.79;27.41;101778.88;4145154;28;20062;-67
2021/10/24 07:13:47;;;;;;;3.90;2.05;;;;;;;26.01;27.30;101804.03;4145511;28;20045;-66
2021/10/24 07:15:50;;;;;;;4.07;2.13;;;;;;;26.17;26.99;101829.72;4145442;28;20509;-66
2021/10/24 07:17:52;;;;;;;6.72;2.40;;;;;;;25.94;27.19;101794.75;4144996;28;20042;-66
2021/10/24 07:19:54;;;;;;;5.22;2.03;;;;;;;26.14;27.50;101823.59;4145257;28;20045;-67
2021/10/24 07:21:56;;;;;;;4.97;2.05;;;;;;;25.98;27.40;101805.16;4145360;28;20053;-66
2021/10/24 07:23:58;;;;;;;5.55;2.65;;;;;;;25.82;27.21;101781.31;4145225;28;20132;-64
2021/10/24 07:26:01;;;;;;;5.18;2.40;;;;;;;26.13;27.27;101834.53;4145457;28;20052;-66
2021/10/24 07:28:03;;;;;;;4.72;2.10;;;;;;;26.19;27.38;101841.25;4145109;28;20122;-65
2021/10/24 07:30:07;;;;;;;4.85;2.17;;;;;;;26.13;27.15;101835.38;4145385;28;20046;-60
2021/10/24 07:32:10;;;;;;;5.07;2.13;;;;;;;26.17;27.42;101846.75;4145111;28;20046;-59
2021/10/24 07:34:12;;;;;;;5.13;2.33;;;;;;;26.18;27.54;101840.38;4145032;28;20568;-59
2021/10/24 07:36:15;;;;;;;4.78;2.28;;;;;;;26.17;27.48;101838.66;4145304;28;20046;-61
2021/10/24 07:38:17;;;;;;;6.00;2.33;;;;;;;26.17;27.29;101838.66;4145042;28;20038;-61
2021/10/24 07:40:21;;;;;;;5.10;2.00;;;;;;;25.91;27.37;101797.72;4145379;28;20460;-64
2021/10/24 07:42:25;;;;;;;4.70;2.20;;;;;;;26.18;27.36;101831.44;4145085;28;20046;-61
2021/10/24 07:44:27;;;;;;;4.55;2.20;;;;;;;26.20;27.34;101832.16;4142783;28;20061;-66
2021/10/24 07:46:30;;;;;;;3.90;1.90;;;;;;;26.18;27.11;101817.97;4130925;28;20050;-66
2021/10/24 07:48:32;;;;;;;5.43;2.05;;;;;;;26.21;27.29;101823.94;4135565;28;20045;-66
2021/10/24 07:50:35;;;;;;;4.38;1.90;;;;;;;26.24;27.30;101825.53;4139847;28;20057;-62
2021/10/24 07:52:37;;;;;;;4.55;1.75;;;;;;;26.05;27.14;101780.34;4131881;28;20396;-65
2021/10/24 07:54:40;;;;;;;4.88;2.10;;;;;;;26.04;27.22;101781.34;4142988;28;20053;-60
2021/10/24 07:56:42;;;;;;;3.78;1.73;;;;;;;26.09;27.33;101795.31;4131956;28;20480;-65
2021/10/24 07:58:46;;;;;;;5.32;1.88;;;;;;;26.14;27.50;101799.34;4134210;28;20108;-65
2021/10/24 08:00:48;;;;;;;4.53;1.58;;;;;;;26.17;27.25;101795.50;4139441;28;20071;-61
2021/10/24 08:02:51;;;;;;;4.32;1.92;;;;;;;26.20;27.43;101800.66;4131647;28;20129;-64
2021/10/24 08:04:53;;;;;;;4.35;1.70;;;;;;;26.14;27.12;101793.09;4142248;28;20089;-59
2021/10/24 08:06:55;;;;;;;3.85;1.90;;;;;;;25.90;27.34;101767.19;4132828;28;20117;-64
2021/10/24 08:08:59;;;;;;;3.40;1.55;;;;;;;26.20;27.42;101808.75;4133279;28;20533;-60
2021/10/24 08:11:02;;;;;;;3.70;1.75;;;;;;;26.17;27.42;101809.00;4141339;28;20182;-65
2021/10/24 08:13:05;;;;;;;4.20;1.77;;;;;;;26.04;27.15;101782.22;4131682;28;20458;-59
2021/10/24 08:15:09;;;;;;;4.10;1.75;;;;;;;26.24;27.40;101812.03;4141148;28;20045;-58
2021/10/24 08:17:12;;;;;;;3.22;1.58;;;;;;;26.16;27.32;101796.50;4133245;28;20049;-60
2021/10/24 08:19:14;;;;;;;3.35;1.60;;;;;;;25.89;27.16;101751.16;4132551;28;20042;-59
2021/10/24 08:21:17;;;;;;;3.33;1.60;;;;;;;26.21;27.31;101806.91;4142178;28;20042;-59
2021/10/24 08:23:19;;;;;;;4.38;1.80;;;;;;;26.22;27.40;101806.78;4131534;28;20053;-59
2021/10/24 08:25:23;;;;;;;3.55;1.60;;;;;;;25.88;27.22;101752.97;4140083;28;20479;-60
2021/10/24 08:27:27;;;;;;;3.85;1.60;;;;;;;25.97;27.22;101770.25;4133923;28;20454;-59
2021/10/24 08:29:29;;;;;;;3.40;1.55;;;;;;;25.89;27.08;101757.38;4131157;28;20046;-58
2021/10/24 08:31:32;;;;;;;3.17;1.38;;;;;;;26.25;27.16;101817.28;4142308;28;20050;-62
2021/10/24 08:33:35;;;;;;;2.58;1.23;;;;;;;25.92;27.09;101769.75;4131214;28;20418;-64
2021/10/24 08:35:38;;;;;;;3.10;1.55;;;;;;;26.25;27.46;101828.09;4135134;28;20050;-59
2021/10/24 08:37:40;;;;;;;3.80;1.52;;;;;;;25.95;27.30;101783.81;4143921;28;20402;-67
2021/10/24 08:39:42;;;;;;;4.95;1.50;;;;;;;26.25;27.08;101824.53;4145789;28;20046;-60
2021/10/24 08:41:49;;;;;;;3.40;1.73;;;;;;;25.96;27.25;101771.22;4143399;28;20050;-66
2021/10/24 08:43:52;;;;;;;3.97;1.80;;;;;;;26.08;26.97;101790.94;4131180;28;20046;-63
2021/10/24 08:45:55;;;;;;;3.72;1.50;;;;;;;25.92;26.97;101757.16;4138581;28;20517;-63
2021/10/24 08:47:57;;;;;;;4.35;1.60;;;;;;;26.27;27.08;101818.03;4134845;28;20046;-61
2021/10/24 08:49:59;;;;;;;4.35;1.65;;;;;;;25.98;27.23;101769.25;4132034;28;20046;-58
2021/10/24 08:52:02;;;;;;;4.00;1.60;;;;;;;25.96;27.32;101763.13;4141638;28;20046;-64
2021/10/24 08:54:04;;;;;;;3.47;1.40;;;;;;;26.01;27.25;101765.44;4130975;28;20042;-60
2021/10/24 08:56:17;;;;;;;3.35;1.65;;;;;;;26.03;26.97;101763.44;4136119;28;20038;-59
2021/10/24 08:58:20;;;;;;;3.70;1.70;;;;;;;26.28;27.28;101805.38;4134332;28;20078;-65
2021/10/24 09:00:23;;;;;;;3.67;1.60;;;;;;;26.24;27.26;101803.94;4132001;28;20046;-63
2021/10/24 09:02:58;;;;;;;3.85;1.75;;;;;;;26.24;27.21;101798.56;4141409;28;20039;-62
2021/10/24 09:05:01;;;;;;;4.40;1.55;;;;;;;26.28;27.11;101805.38;4130481;28;20046;-60
2021/10/24 09:07:03;;;;;;;4.45;1.80;;;;;;;25.92;27.06;101745.50;4142085;28;20054;-63
2021/10/24 09:09:15;;;;;;;3.90;1.80;;;;;;;26.24;27.11;101779.69;4130817;28;20113;-59
2021/10/24 09:11:20;;;;;;;4.20;1.80;;;;;;;26.31;27.14;101792.50;4134629;28;20045;-60
2021/10/24 09:13:28;;;;;;;4.05;1.60;;;;;;;26.28;27.20;101786.50;4137955;28;20119;-61
2021/10/24 09:15:47;;;;;;;4.03;1.80;;;;;;;26.19;27.35;101754.97;4130427;28;20050;-63
2021/10/24 09:17:51;;;;;;;4.95;1.80;;;;;;;26.31;27.10;101772.78;4143913;28;20046;-58
2021/10/24 09:20:00;;;;;;;3.42;1.60;;;;;;;26.34;27.07;101774.34;4146670;28;20425;-58
2021/10/24 09:22:13;;;;;;;5.38;1.90;;;;;;;26.40;27.08;101776.50;4146424;28;20041;-65
2021/10/24 09:24:15;;;;;;;3.13;1.70;;;;;;;26.38;27.16;101775.78;4146363;28;20041;-65
2021/10/24 09:26:27;;;;;;;4.63;2.00;;;;;;;26.39;27.04;101767.59;4146191;28;20049;-60
2021/10/24 09:28:30;;;;;;;;;;;;;;;26.38;27.11;101767.69;4136081;28;20455;-62
2021/10/24 09:30:35;;;;;;;4.55;1.83;;;;;;;26.08;27.05;101724.38;4146731;28;19952;-63
2021/10/24 09:32:52;;;;;;;3.63;1.60;;;;;;;26.39;27.13;101769.41;4146291;28;20092;-61
2021/10/24 09:35:04;;;;;;;3.40;1.70;;;;;;;26.35;26.88;101767.97;4146283;28;20548;-68